Airfield :
LOGIN :

Register | Disclaimer

   EN    FR    IT 

 










Legend :    VFR   Marginal VFR   IFR   Intensive IFR   Very Intensive IFR
Visi :
Ceiling :
>= 8 km
>= 3000ft
5 to 8 km
1000 to 3000 ft
1500m to 5 km
500 to 1000 ft
800 to 1500m
200 to 500 ft
< 800m
< 200 ft
Symbols :   Thunderstorms  Fog  Heavy snow  Heavy precipitations  Wind > 20 kt
SIGMETs :     Misc.  Thunderstorms  Icing  Turbulence  Mountain Waves  Volcanic Ashes






- Airport Elevation : 1188 ft


LKLN - Plzen Line

CURRENT METAR :
  • 192200Z AUTO 02002KT CAVOK 21/14 Q1017

EXPIRED METARs :
  • 192100Z AUTO VRB02KT CAVOK 22/14 Q1017
  • 192000Z AUTO 05003KT 010V080 CAVOK 24/14 Q1017
  • 191900Z AUTO 06004KT 020V120 9999 FEW072 BKN090 25/14 Q1017
  • 191800Z AUTO 05004KT 010V090 CAVOK 27/14 Q1017
  • 191700Z AUTO VRB04KT CAVOK 28/14 Q1017

TAF N/A



MET'MAP, your aeronautical weather chart ! - Copyright ORBIFLY December 2007 - Disclaimer

ORBIFLY MET'MAP TEAM :

Programming & Development : Alexandra Zaïnal
Original concept : Baudouin d'Aumeries
Technical & hardware support : Manuel Goepfert
Assistance : Marc-Olivier Méhu




SOURCES & CREDITS :

   NOAA